FWCL

Chileka International Airport

Blantyre, Malawi
METAR FWCL 181500Z 12005KT 9999 FEW030CB SCT035 BKN090 23/16 Q1013 NOSIG
Observed Flight Rules
Jan-18 @ 15:00 UTC (13 hours ago) Visual Flight Rules
Wind Visibility Clouds
120° at 5 knots 10,000+ meters
  • Few at 3,000' AGL
  • Scattered at 3,500' AGL
  • Broken at 9,000' AGL
Temperatures Readings
Current 23°C / 73°F
Dewpoint 16°C / 61°F
Humidity 65%
Altimeter 29.91" Hg
Pressure 1013 hPa
Elevation 767
METAR FWCL 181500Z 12005KT 9999 FEW030CB SCT035 BKN090 23/16 Q1013 NOSIG
Observed Flight Rules
Jan-18 @ 15:00 UTC
(13 hours ago)
VFR
Wind Visibility
120° at 5 knots 10,000+ meters
Clouds
  • Few at 3,000' AGL
  • Scattered at 3,500' AGL
  • Broken at 9,000' AGL
Temperature Dewpoint
23°C / 73°F 16°C / 61°F
Humidity Altimeter Pressure
65% 29.91" Hg 1013 hPa